createdAt,value
2019-02-10T00:00:32.636Z,6.76
2019-02-10T00:01:32.598Z,6.74
2019-02-10T00:02:32.587Z,6.66
2019-02-10T00:03:32.578Z,6.73
2019-02-10T00:04:32.566Z,6.76
2019-02-10T00:05:32.577Z,6.77
2019-02-10T00:06:32.540Z,6.76
2019-02-10T00:07:32.531Z,6.80
2019-02-10T00:08:32.518Z,6.70
2019-02-10T00:09:32.506Z,6.74
2019-02-10T00:10:32.523Z,6.74
2019-02-10T00:11:32.486Z,6.67
2019-02-10T00:12:32.478Z,6.64
2019-02-10T00:13:32.468Z,6.62
2019-02-10T00:14:32.457Z,6.59
2019-02-10T00:15:32.467Z,6.76
2019-02-10T00:16:32.431Z,6.70
2019-02-10T00:17:32.421Z,6.73
2019-02-10T00:18:32.420Z,6.73
2019-02-10T00:19:32.398Z,6.67
2019-02-10T00:20:32.411Z,6.70
2019-02-10T00:21:32.377Z,6.74
2019-02-10T00:22:32.364Z,6.70
2019-02-10T00:23:32.375Z,6.70
2019-02-10T00:24:32.346Z,6.80
2019-02-10T00:25:32.412Z,6.81
2019-02-10T00:26:32.323Z,6.77
2019-02-10T00:27:32.312Z,6.74
2019-02-10T00:28:32.302Z,6.64
2019-02-10T00:29:32.290Z,6.76
2019-02-10T00:30:32.302Z,6.69
2019-02-10T00:31:32.267Z,6.61
2019-02-10T00:32:32.254Z,6.73
2019-02-10T00:33:32.249Z,6.59
2019-02-10T00:34:32.234Z,6.70
2019-02-10T00:35:32.248Z,6.79
2019-02-10T00:36:33.540Z,6.71
2019-02-10T00:37:32.204Z,6.62
2019-02-10T00:38:32.193Z,6.67
2019-02-10T00:39:32.178Z,6.80
2019-02-10T00:40:32.199Z,6.69
2019-02-10T00:41:32.156Z,6.69
2019-02-10T00:42:32.145Z,6.66
2019-02-10T00:43:32.157Z,6.66
2019-02-10T00:44:32.124Z,6.64
2019-02-10T00:45:32.139Z,6.69
2019-02-10T00:46:32.102Z,6.64
2019-02-10T00:47:32.094Z,6.66
2019-02-10T00:48:32.079Z,6.79
2019-02-10T00:49:32.071Z,6.70
2019-02-10T00:50:32.083Z,6.62
2019-02-10T00:51:32.046Z,6.61
2019-02-10T00:52:32.034Z,6.61
2019-02-10T00:53:32.027Z,6.66
2019-02-10T00:54:32.016Z,6.58
2019-02-10T00:55:32.029Z,6.67
2019-02-10T00:56:31.991Z,6.59
2019-02-10T00:57:31.979Z,6.64
2019-02-10T00:58:31.973Z,6.61
2019-02-10T00:59:31.960Z,6.61
2019-02-10T01:00:31.973Z,6.51
2019-02-10T01:01:31.939Z,6.59
2019-02-10T01:02:31.927Z,6.64
2019-02-10T01:03:31.918Z,6.58
2019-02-10T01:04:31.909Z,6.64
2019-02-10T01:05:31.928Z,6.52
2019-02-10T01:06:31.899Z,6.58
2019-02-10T01:07:31.874Z,6.49
2019-02-10T01:08:31.862Z,6.49
2019-02-10T01:09:31.851Z,6.46
2019-02-10T01:10:31.865Z,6.44
2019-02-10T01:11:31.832Z,6.43
2019-02-10T01:12:31.819Z,6.52
2019-02-10T01:13:31.847Z,6.48
2019-02-10T01:14:31.794Z,6.46
2019-02-10T01:15:31.809Z,6.40
2019-02-10T01:16:31.778Z,6.46
2019-02-10T01:17:31.770Z,6.28
2019-02-10T01:18:31.752Z,6.34
2019-02-10T01:19:31.749Z,6.33
2019-02-10T01:20:31.756Z,6.18
2019-02-10T01:21:31.722Z,6.25
2019-02-10T01:22:31.709Z,6.15
2019-02-10T01:23:31.698Z,6.12
2019-02-10T01:24:31.686Z,6.17
2019-02-10T01:25:31.701Z,6.08
2019-02-10T01:26:31.702Z,6.00
2019-02-10T01:27:31.655Z,6.08
2019-02-10T01:28:31.644Z,6.04
2019-02-10T01:29:31.637Z,6.11
2019-02-10T01:30:31.646Z,6.04
2019-02-10T01:31:31.610Z,6.06
2019-02-10T01:32:31.601Z,5.93
2019-02-10T01:33:31.588Z,5.94
2019-02-10T01:34:31.584Z,5.89
2019-02-10T01:35:31.592Z,6.00
2019-02-10T01:36:31.556Z,5.86
2019-02-10T01:37:31.546Z,5.96
2019-02-10T01:38:31.537Z,5.90
2019-02-10T01:39:31.544Z,5.82
2019-02-10T01:40:31.540Z,5.78
2019-02-10T01:41:31.502Z,5.89
2019-02-10T01:42:31.492Z,5.81
2019-02-10T01:43:31.480Z,5.76
2019-02-10T01:44:38.512Z,5.75
2019-02-10T01:45:31.483Z,5.72
2019-02-10T01:46:31.449Z,5.81
2019-02-10T01:47:31.439Z,5.75
2019-02-10T01:48:31.427Z,5.76
2019-02-10T01:49:31.420Z,5.68
2019-02-10T01:50:31.432Z,5.67
2019-02-10T01:51:31.398Z,5.74
2019-02-10T01:52:31.387Z,5.74
2019-02-10T01:53:31.379Z,5.67
2019-02-10T01:54:31.370Z,5.61
2019-02-10T01:55:32.937Z,5.60
2019-02-10T01:56:31.347Z,5.61
2019-02-10T01:57:31.335Z,5.64
2019-02-10T01:58:31.325Z,5.60
2019-02-10T01:59:31.314Z,5.63
2019-02-10T02:00:31.329Z,5.58
2019-02-10T02:01:31.292Z,5.49
2019-02-10T02:02:31.285Z,5.58
2019-02-10T02:03:31.270Z,5.61
2019-02-10T02:04:31.263Z,5.53
2019-02-10T02:05:31.281Z,5.46
2019-02-10T02:06:31.238Z,5.51
2019-02-10T02:07:31.229Z,5.49
2019-02-10T02:08:31.221Z,5.54
2019-02-10T02:09:31.212Z,5.40
2019-02-10T02:10:31.222Z,5.46
2019-02-10T02:11:31.189Z,5.46
2019-02-10T02:12:31.176Z,5.51
2019-02-10T02:13:31.163Z,5.46
2019-02-10T02:14:31.156Z,5.38
2019-02-10T02:15:31.168Z,5.42
2019-02-10T02:16:31.131Z,5.40
2019-02-10T02:17:31.129Z,5.42
2019-02-10T02:18:31.111Z,5.42
2019-02-10T02:19:31.100Z,5.39
2019-02-10T02:20:31.118Z,5.43
2019-02-10T02:21:31.075Z,5.35
2019-02-10T02:22:31.072Z,5.39
2019-02-10T02:23:31.058Z,5.38
2019-02-10T02:24:31.049Z,5.53
2019-02-10T02:25:31.060Z,5.38
2019-02-10T02:26:31.024Z,5.36
2019-02-10T02:27:31.014Z,5.33
2019-02-10T02:28:31.003Z,5.36
2019-02-10T02:29:30.990Z,5.35
2019-02-10T02:30:31.007Z,5.42
2019-02-10T02:31:30.971Z,5.46
2019-02-10T02:32:30.959Z,5.33
2019-02-10T02:33:30.949Z,5.33
2019-02-10T02:34:30.935Z,5.40
2019-02-10T02:35:30.952Z,5.39
2019-02-10T02:36:30.927Z,5.38
2019-02-10T02:37:30.904Z,5.35
2019-02-10T02:38:30.891Z,5.36
2019-02-10T02:39:30.887Z,5.42
2019-02-10T02:40:30.896Z,5.38
2019-02-10T02:41:30.860Z,5.36
2019-02-10T02:42:30.853Z,5.36
2019-02-10T02:43:30.841Z,5.40
2019-02-10T02:44:30.828Z,5.40
2019-02-10T02:45:30.843Z,5.48
2019-02-10T02:46:30.805Z,5.43
2019-02-10T02:47:30.808Z,5.40
2019-02-10T02:48:30.823Z,5.49
2019-02-10T02:49:30.772Z,5.42
2019-02-10T02:50:30.794Z,5.45
2019-02-10T02:51:30.757Z,5.49
2019-02-10T02:52:30.741Z,5.39
2019-02-10T02:53:30.728Z,5.45
2019-02-10T02:54:30.718Z,5.42
2019-02-10T02:55:30.771Z,5.49
2019-02-10T02:56:30.696Z,5.45
2019-02-10T02:57:30.687Z,5.38
2019-02-10T02:58:30.675Z,5.46
2019-02-10T02:59:30.663Z,5.39
2019-02-10T03:00:30.654Z,5.42
2019-02-10T03:01:30.666Z,5.39
2019-02-10T03:02:30.633Z,5.39
2019-02-10T03:03:30.621Z,5.38
2019-02-10T03:04:30.619Z,5.42
2019-02-10T03:05:30.627Z,5.36
2019-02-10T03:06:30.589Z,5.33
2019-02-10T03:07:30.578Z,5.36
2019-02-10T03:08:30.565Z,5.22
2019-02-10T03:09:30.559Z,5.27
2019-02-10T03:10:30.593Z,5.27
2019-02-10T03:11:30.534Z,5.24
2019-02-10T03:12:30.522Z,5.21
2019-02-10T03:13:30.512Z,5.25
2019-02-10T03:14:30.506Z,5.24
2019-02-10T03:15:30.518Z,5.20
2019-02-10T03:16:30.479Z,5.13
2019-02-10T03:17:30.471Z,5.13
2019-02-10T03:18:30.457Z,5.17
2019-02-10T03:19:30.445Z,5.12
2019-02-10T03:20:30.463Z,5.13
2019-02-10T03:21:30.426Z,5.13
2019-02-10T03:22:30.417Z,5.22
2019-02-10T03:23:30.401Z,5.07
2019-02-10T03:24:30.391Z,5.06
2019-02-10T03:25:30.404Z,5.10
2019-02-10T03:26:30.372Z,5.06
2019-02-10T03:27:30.359Z,5.02
2019-02-10T03:28:30.350Z,5.06
2019-02-10T03:29:30.336Z,5.09
2019-02-10T03:30:30.351Z,5.07
2019-02-10T03:31:30.327Z,5.10
2019-02-10T03:32:30.304Z,5.07
2019-02-10T03:33:30.294Z,5.12
2019-02-10T03:34:30.282Z,5.07
2019-02-10T03:35:30.297Z,5.07
2019-02-10T03:36:30.258Z,4.96
2019-02-10T03:37:30.268Z,5.09
2019-02-10T03:38:30.237Z,5.12
2019-02-10T03:39:30.230Z,5.03
2019-02-10T03:40:30.239Z,5.07
2019-02-10T03:41:30.205Z,5.02
2019-02-10T03:42:30.193Z,5.03
2019-02-10T03:43:30.185Z,5.00
2019-02-10T03:44:30.170Z,5.00
2019-02-10T03:45:30.188Z,4.97
2019-02-10T03:46:30.150Z,4.91
2019-02-10T03:47:30.144Z,4.97
2019-02-10T03:48:30.131Z,4.89
2019-02-10T03:49:30.117Z,4.97
2019-02-10T03:50:30.132Z,4.97
2019-02-10T03:51:30.103Z,4.82
2019-02-10T03:52:30.084Z,4.94
2019-02-10T03:53:30.075Z,4.86
2019-02-10T03:54:30.063Z,4.84
2019-02-10T03:55:30.077Z,4.91
2019-02-10T03:56:30.042Z,4.84
2019-02-10T03:57:30.029Z,4.91
2019-02-10T03:58:30.019Z,4.75
2019-02-10T03:59:30.008Z,4.84
2019-02-10T04:00:30.027Z,4.86
2019-02-10T04:01:29.985Z,4.84
2019-02-10T04:02:29.983Z,4.88
2019-02-10T04:03:29.966Z,4.84
2019-02-10T04:04:29.959Z,4.91
2019-02-10T04:05:29.972Z,4.86
2019-02-10T04:06:29.933Z,4.84
2019-02-10T04:07:35.896Z,4.77
2019-02-10T04:08:30.912Z,4.78
2019-02-10T04:09:29.934Z,4.85
2019-02-10T04:10:29.915Z,4.78
2019-02-10T04:11:29.877Z,4.78
2019-02-10T04:12:29.868Z,4.84
2019-02-10T04:13:29.857Z,4.86
2019-02-10T04:14:29.844Z,4.78
2019-02-10T04:15:29.886Z,4.70
2019-02-10T04:16:29.823Z,4.72
2019-02-10T04:17:29.816Z,4.82
2019-02-10T04:18:29.808Z,4.72
2019-02-10T04:19:29.794Z,4.75
2019-02-10T04:20:29.808Z,4.69
2019-02-10T04:21:29.771Z,4.69
2019-02-10T04:22:29.764Z,4.77
2019-02-10T04:23:29.751Z,4.70
2019-02-10T04:24:29.739Z,4.70
2019-02-10T04:25:29.751Z,4.70
2019-02-10T04:26:29.717Z,4.70
2019-02-10T04:27:29.706Z,4.75
2019-02-10T04:28:29.727Z,4.73
2019-02-10T04:29:29.682Z,4.70
2019-02-10T04:30:29.697Z,4.70
2019-02-10T04:31:29.663Z,4.70
2019-02-10T04:32:29.650Z,4.65
2019-02-10T04:33:29.639Z,4.70
2019-02-10T04:34:29.629Z,4.62
2019-02-10T04:35:29.646Z,4.67
2019-02-10T04:36:29.608Z,4.60
2019-02-10T04:37:29.597Z,4.75
2019-02-10T04:38:29.589Z,4.73
2019-02-10T04:39:29.575Z,4.70
2019-02-10T04:40:29.590Z,4.78
2019-02-10T04:41:29.554Z,4.75
2019-02-10T04:42:29.544Z,4.69
2019-02-10T04:43:29.534Z,4.69
2019-02-10T04:44:29.524Z,4.63
2019-02-10T04:45:29.537Z,4.65
2019-02-10T04:46:29.504Z,4.60
2019-02-10T04:47:29.490Z,4.66
2019-02-10T04:48:29.483Z,4.60
2019-02-10T04:49:29.471Z,4.67
2019-02-10T04:50:29.486Z,4.69
2019-02-10T04:51:29.449Z,4.67
2019-02-10T04:52:29.437Z,4.65
2019-02-10T04:53:29.428Z,4.69
2019-02-10T04:54:29.417Z,4.70
2019-02-10T04:55:29.431Z,4.65
2019-02-10T04:56:29.393Z,4.62
2019-02-10T04:57:29.384Z,4.66
2019-02-10T04:58:29.372Z,4.78
2019-02-10T04:59:29.367Z,4.73
2019-02-10T05:00:29.378Z,4.73
2019-02-10T05:01:29.340Z,4.72
2019-02-10T05:02:29.354Z,4.67
2019-02-10T05:03:29.318Z,4.84
2019-02-10T05:04:29.314Z,4.84
2019-02-10T05:05:29.322Z,4.77
2019-02-10T05:06:29.287Z,4.82
2019-02-10T05:07:29.276Z,4.75
2019-02-10T05:08:29.266Z,4.86
2019-02-10T05:09:29.255Z,4.73
2019-02-10T05:10:29.269Z,4.84
2019-02-10T05:11:29.243Z,4.77
2019-02-10T05:12:29.222Z,4.78
2019-02-10T05:13:29.214Z,4.69
2019-02-10T05:14:29.211Z,4.86
2019-02-10T05:15:29.225Z,4.73
2019-02-10T05:16:29.182Z,4.78
2019-02-10T05:17:29.169Z,4.86
2019-02-10T05:18:29.158Z,4.84
2019-02-10T05:19:29.148Z,4.85
2019-02-10T05:20:29.137Z,4.86
2019-02-10T05:21:29.151Z,4.85
2019-02-10T05:22:29.122Z,4.86
2019-02-10T05:23:29.108Z,4.82
2019-02-10T05:24:29.097Z,4.78
2019-02-10T05:25:29.107Z,4.84
2019-02-10T05:26:29.072Z,4.80
2019-02-10T05:27:29.065Z,4.86
2019-02-10T05:28:29.063Z,4.84
2019-02-10T05:29:29.041Z,4.86
2019-02-10T05:30:29.053Z,4.88
2019-02-10T05:31:29.018Z,4.85
2019-02-10T05:32:29.008Z,4.88
2019-02-10T05:33:28.997Z,4.88
2019-02-10T05:34:28.983Z,4.82
2019-02-10T05:35:29.014Z,4.99
2019-02-10T05:36:28.965Z,4.86
2019-02-10T05:37:28.952Z,4.85
2019-02-10T05:38:28.939Z,4.94
2019-02-10T05:39:28.931Z,4.94
2019-02-10T05:40:28.920Z,4.91
2019-02-10T05:41:28.933Z,4.94
2019-02-10T05:42:28.902Z,4.92
2019-02-10T05:43:28.889Z,4.99
2019-02-10T05:44:28.876Z,4.99
2019-02-10T05:45:28.892Z,4.97
2019-02-10T05:46:28.871Z,5.04
2019-02-10T05:47:28.845Z,5.04
2019-02-10T05:48:28.849Z,5.03
2019-02-10T05:49:28.821Z,5.09
2019-02-10T05:50:28.838Z,5.04
2019-02-10T05:51:28.803Z,5.06
2019-02-10T05:52:28.794Z,5.09
2019-02-10T05:53:28.778Z,5.09
2019-02-10T05:54:28.770Z,5.06
2019-02-10T05:55:28.782Z,5.06
2019-02-10T05:56:28.745Z,5.10
2019-02-10T05:57:28.737Z,5.06
2019-02-10T05:58:28.724Z,5.07
2019-02-10T05:59:28.719Z,5.07
2019-02-10T06:00:28.728Z,5.10
2019-02-10T06:01:28.692Z,5.06
2019-02-10T06:02:28.680Z,5.03
2019-02-10T06:03:28.670Z,5.09
2019-02-10T06:04:28.681Z,5.07
2019-02-10T06:05:28.677Z,5.07
2019-02-10T06:06:28.642Z,5.07
2019-02-10T06:07:28.627Z,5.15
2019-02-10T06:08:28.614Z,5.09
2019-02-10T06:09:28.605Z,5.06
2019-02-10T06:10:28.618Z,5.02
2019-02-10T06:11:28.585Z,5.13
2019-02-10T06:12:28.571Z,5.10
2019-02-10T06:13:28.561Z,4.96
2019-02-10T06:14:28.551Z,5.10
2019-02-10T06:15:28.564Z,5.06
2019-02-10T06:16:28.535Z,5.02
2019-02-10T06:17:28.518Z,5.07
2019-02-10T06:18:28.509Z,5.10
2019-02-10T06:19:28.498Z,5.09
2019-02-10T06:20:28.515Z,5.06
2019-02-10T06:21:28.476Z,5.07
2019-02-10T06:22:28.463Z,5.10
2019-02-10T06:23:28.456Z,5.09
2019-02-10T06:24:28.445Z,5.10
2019-02-10T06:25:28.459Z,5.20
2019-02-10T06:26:28.420Z,5.18
2019-02-10T06:27:28.410Z,5.13
2019-02-10T06:28:28.399Z,5.12
2019-02-10T06:29:28.388Z,5.10
2019-02-10T06:30:28.407Z,5.10
2019-02-10T06:31:28.369Z,5.24
2019-02-10T06:32:28.361Z,5.25
2019-02-10T06:33:28.347Z,5.18
2019-02-10T06:34:28.332Z,5.25
2019-02-10T06:35:28.345Z,5.15
2019-02-10T06:36:28.314Z,5.22
2019-02-10T06:37:28.301Z,5.24
2019-02-10T06:38:28.289Z,5.22
2019-02-10T06:39:28.281Z,5.24
2019-02-10T06:40:28.291Z,5.15
2019-02-10T06:41:28.255Z,5.25
2019-02-10T06:42:28.244Z,5.21
2019-02-10T06:43:28.234Z,5.21
2019-02-10T06:44:28.223Z,5.07
2019-02-10T06:45:28.237Z,5.22
2019-02-10T06:46:28.200Z,5.20
2019-02-10T06:47:28.191Z,5.18
2019-02-10T06:48:28.181Z,5.22
2019-02-10T06:49:28.171Z,5.21
2019-02-10T06:50:28.184Z,5.28
2019-02-10T06:51:28.147Z,5.22
2019-02-10T06:52:28.135Z,5.30
2019-02-10T06:53:28.125Z,5.24
2019-02-10T06:54:28.117Z,5.27
2019-02-10T06:55:28.128Z,5.31
2019-02-10T06:56:28.094Z,5.27
2019-02-10T06:57:28.080Z,5.30
2019-02-10T06:58:28.069Z,5.28
2019-02-10T06:59:28.062Z,5.30
2019-02-10T07:00:28.074Z,5.31
2019-02-10T07:01:28.039Z,5.24
2019-02-10T07:02:28.028Z,5.30
2019-02-10T07:03:28.018Z,5.36
2019-02-10T07:04:28.006Z,5.42
2019-02-10T07:05:28.020Z,5.38
2019-02-10T07:06:27.982Z,5.39
2019-02-10T07:07:27.972Z,5.31
2019-02-10T07:08:30.571Z,5.46
2019-02-10T07:09:27.950Z,5.40
2019-02-10T07:10:27.964Z,5.36
2019-02-10T07:11:27.930Z,5.38
2019-02-10T07:12:27.919Z,5.49
2019-02-10T07:13:27.909Z,5.42
2019-02-10T07:14:27.897Z,5.49
2019-02-10T07:15:27.913Z,5.46
2019-02-10T07:16:27.874Z,5.57
2019-02-10T07:17:27.862Z,5.48
2019-02-10T07:18:27.862Z,5.53
2019-02-10T07:19:27.842Z,5.46
2019-02-10T07:20:27.858Z,5.58
2019-02-10T07:21:28.769Z,5.57
2019-02-10T07:22:27.810Z,5.58
2019-02-10T07:23:27.799Z,5.53
2019-02-10T07:24:27.789Z,5.61
2019-02-10T07:25:27.806Z,5.57
2019-02-10T07:26:27.767Z,5.61
2019-02-10T07:27:27.755Z,5.64
2019-02-10T07:28:27.744Z,5.65
2019-02-10T07:29:27.734Z,5.68
2019-02-10T07:30:27.746Z,5.68
2019-02-10T07:31:27.716Z,5.74
2019-02-10T07:32:27.699Z,5.72
2019-02-10T07:33:27.689Z,5.75
2019-02-10T07:34:27.679Z,5.76
2019-02-10T07:35:27.697Z,5.75
2019-02-10T07:36:27.659Z,5.76
2019-02-10T07:37:27.648Z,5.76
2019-02-10T07:38:27.637Z,5.78
2019-02-10T07:39:27.627Z,5.85
2019-02-10T07:40:27.648Z,5.83
2019-02-10T07:41:27.610Z,5.81
2019-02-10T07:42:27.595Z,5.85
2019-02-10T07:43:27.583Z,5.85
2019-02-10T07:44:27.574Z,5.83
2019-02-10T07:45:34.637Z,5.85
2019-02-10T07:46:27.553Z,5.81
2019-02-10T07:47:27.541Z,5.86
2019-02-10T07:48:27.530Z,5.86
2019-02-10T07:49:27.519Z,5.89
2019-02-10T07:50:27.531Z,5.83
2019-02-10T07:51:27.498Z,5.91
2019-02-10T07:52:27.486Z,5.96
2019-02-10T07:53:27.479Z,5.93
2019-02-10T07:54:27.467Z,5.86
2019-02-10T07:55:27.480Z,6.03
2019-02-10T07:56:28.795Z,6.06
2019-02-10T07:57:27.433Z,6.06
2019-02-10T07:58:27.424Z,6.00
2019-02-10T07:59:27.413Z,6.01
2019-02-10T08:00:27.438Z,6.06
2019-02-10T08:01:27.392Z,6.11
2019-02-10T08:02:27.383Z,6.04
2019-02-10T08:03:27.372Z,6.11
2019-02-10T08:04:27.360Z,6.09
2019-02-10T08:05:27.384Z,6.15
2019-02-10T08:06:27.338Z,6.12
2019-02-10T08:07:27.330Z,6.17
2019-02-10T08:08:27.333Z,6.14
2019-02-10T08:09:27.310Z,6.14
2019-02-10T08:10:27.331Z,6.15
2019-02-10T08:11:27.286Z,6.18
2019-02-10T08:12:27.277Z,6.18
2019-02-10T08:13:27.267Z,6.14
2019-02-10T08:14:27.257Z,6.25
2019-02-10T08:15:27.280Z,6.22
2019-02-10T08:16:27.233Z,6.28
2019-02-10T08:17:27.224Z,6.27
2019-02-10T08:18:27.212Z,6.30
2019-02-10T08:19:27.200Z,6.22
2019-02-10T08:20:27.216Z,6.22
2019-02-10T08:21:27.182Z,6.22
2019-02-10T08:22:27.171Z,6.31
2019-02-10T08:23:27.163Z,6.33
2019-02-10T08:24:27.148Z,6.22
2019-02-10T08:25:27.185Z,6.14
2019-02-10T08:26:28.580Z,6.12
2019-02-10T08:27:27.118Z,6.17
2019-02-10T08:28:27.112Z,6.14
2019-02-10T08:29:27.096Z,6.19
2019-02-10T08:30:27.087Z,6.12
2019-02-10T08:31:27.101Z,6.11
2019-02-10T08:32:27.067Z,6.11
2019-02-10T08:33:27.057Z,6.01
2019-02-10T08:34:27.043Z,6.01
2019-02-10T08:35:27.455Z,6.04
2019-02-10T08:36:27.021Z,6.04
2019-02-10T08:37:27.018Z,6.06
2019-02-10T08:38:27.002Z,6.04
2019-02-10T08:39:26.990Z,6.11
2019-02-10T08:40:27.005Z,6.01
2019-02-10T08:41:26.970Z,6.04
2019-02-10T08:42:26.962Z,6.09
2019-02-10T08:43:26.951Z,6.11
2019-02-10T08:44:26.969Z,6.08
2019-02-10T08:45:26.951Z,6.15
2019-02-10T08:46:26.914Z,6.21
2019-02-10T08:47:33.581Z,6.21
2019-02-10T08:48:27.894Z,6.22
2019-02-10T08:49:26.893Z,6.28
2019-02-10T08:50:26.899Z,6.25
2019-02-10T08:51:26.883Z,6.18
2019-02-10T08:52:26.850Z,6.27
2019-02-10T08:53:26.842Z,6.22
2019-02-10T08:54:26.830Z,6.19
2019-02-10T08:55:26.845Z,6.25
2019-02-10T08:56:26.809Z,6.21
2019-02-10T08:57:26.799Z,6.17
2019-02-10T08:58:26.787Z,6.19
2019-02-10T08:59:26.779Z,6.21
2019-02-10T09:00:26.788Z,6.11
2019-02-10T09:01:26.755Z,6.17
2019-02-10T09:02:26.745Z,6.17
2019-02-10T09:03:26.732Z,6.14
2019-02-10T09:04:26.730Z,6.14
2019-02-10T09:05:26.740Z,6.06
2019-02-10T09:06:26.703Z,6.11
2019-02-10T09:07:26.690Z,6.03
2019-02-10T09:08:26.680Z,6.00
2019-02-10T09:09:26.673Z,6.01
2019-02-10T09:10:26.683Z,6.06
2019-02-10T09:11:26.666Z,5.96
2019-02-10T09:12:26.634Z,5.89
2019-02-10T09:13:26.630Z,5.91
2019-02-10T09:14:26.615Z,5.94
2019-02-10T09:15:26.629Z,5.90
2019-02-10T09:16:26.593Z,5.93
2019-02-10T09:17:26.580Z,5.91
2019-02-10T09:18:26.570Z,5.97
2019-02-10T09:19:26.566Z,5.93
2019-02-10T09:20:26.587Z,5.90
2019-02-10T09:21:26.536Z,5.79
2019-02-10T09:22:26.527Z,5.90
2019-02-10T09:23:26.519Z,5.83
2019-02-10T09:24:26.505Z,5.96
2019-02-10T09:25:26.495Z,5.96
2019-02-10T09:26:26.523Z,5.96
2019-02-10T09:27:26.472Z,5.86
2019-02-10T09:28:26.461Z,5.86
2019-02-10T09:29:26.460Z,5.89
2019-02-10T09:30:26.444Z,5.86
2019-02-10T09:31:26.428Z,5.79
2019-02-10T09:32:26.442Z,5.85
2019-02-10T09:33:26.405Z,5.90
2019-02-10T09:34:26.405Z,5.82
2019-02-10T09:35:26.383Z,5.97
2019-02-10T09:36:26.373Z,5.96
2019-02-10T09:37:26.404Z,5.91
2019-02-10T09:38:26.351Z,5.93
2019-02-10T09:39:26.341Z,6.04
2019-02-10T09:40:26.332Z,6.09
2019-02-10T09:41:26.317Z,6.03
2019-02-10T09:42:26.307Z,6.06
2019-02-10T09:43:26.330Z,6.04
2019-02-10T09:44:26.288Z,6.04
2019-02-10T09:45:26.277Z,6.08
2019-02-10T09:46:26.262Z,6.06
2019-02-10T09:47:26.261Z,6.03
2019-02-10T09:48:26.242Z,6.00
2019-02-10T09:49:26.253Z,6.00
2019-02-10T09:50:26.223Z,6.08
2019-02-10T09:51:26.218Z,6.09
2019-02-10T09:52:26.201Z,5.99
2019-02-10T09:53:26.186Z,6.04
2019-02-10T09:54:26.217Z,5.99
2019-02-10T09:55:26.164Z,6.06
2019-02-10T09:56:26.154Z,6.14
2019-02-10T09:57:26.147Z,5.99
2019-02-10T09:58:26.133Z,5.99
2019-02-10T09:59:26.122Z,6.04
2019-02-10T10:00:26.135Z,6.08
2019-02-10T10:01:26.103Z,6.03
2019-02-10T10:02:26.090Z,6.11
2019-02-10T10:03:26.077Z,6.04
2019-02-10T10:04:26.070Z,6.03
2019-02-10T10:05:26.082Z,6.03
2019-02-10T10:06:26.053Z,6.01
2019-02-10T10:07:26.038Z,5.99
2019-02-10T10:08:26.029Z,5.99
2019-02-10T10:09:26.015Z,6.09
2019-02-10T10:10:26.035Z,6.08
2019-02-10T10:11:25.991Z,6.01
2019-02-10T10:12:25.980Z,6.09
2019-02-10T10:13:25.969Z,6.15
2019-02-10T10:14:30.860Z,5.99
2019-02-10T10:15:26.992Z,6.15
2019-02-10T10:16:25.939Z,6.12
2019-02-10T10:17:25.927Z,6.12
2019-02-10T10:18:25.918Z,6.04
2019-02-10T10:19:25.906Z,6.12
2019-02-10T10:20:25.904Z,6.04
2019-02-10T10:21:25.913Z,6.00
2019-02-10T10:22:25.874Z,6.09
2019-02-10T10:23:25.882Z,6.14
2019-02-10T10:24:25.852Z,6.03
2019-02-10T10:25:25.841Z,6.06
2019-02-10T10:26:25.868Z,6.08
2019-02-10T10:27:25.819Z,6.09
2019-02-10T10:28:25.810Z,6.09
2019-02-10T10:29:25.911Z,6.17
2019-02-10T10:30:25.788Z,6.19
2019-02-10T10:31:25.776Z,6.22
2019-02-10T10:32:25.804Z,6.31
2019-02-10T10:33:25.755Z,6.27
2019-02-10T10:34:25.747Z,6.27
2019-02-10T10:35:25.734Z,6.36
2019-02-10T10:36:25.723Z,6.33
2019-02-10T10:37:25.712Z,6.36
2019-02-10T10:38:25.739Z,6.30
2019-02-10T10:39:27.468Z,6.27
2019-02-10T10:40:25.685Z,6.46
2019-02-10T10:41:25.669Z,6.27
2019-02-10T10:42:25.666Z,6.37
2019-02-10T10:43:25.650Z,6.38
2019-02-10T10:44:25.724Z,6.41
2019-02-10T10:45:25.628Z,6.43
2019-02-10T10:46:25.616Z,6.51
2019-02-10T10:47:25.606Z,6.46
2019-02-10T10:48:25.594Z,6.41
2019-02-10T10:49:25.622Z,6.41
2019-02-10T10:50:25.600Z,6.40
2019-02-10T10:51:25.564Z,6.37
2019-02-10T10:52:25.552Z,6.37
2019-02-10T10:53:25.558Z,6.38
2019-02-10T10:54:25.532Z,6.36
2019-02-10T10:55:25.569Z,6.46
2019-02-10T10:56:25.510Z,6.46
2019-02-10T10:57:25.498Z,6.46
2019-02-10T10:58:25.485Z,6.43
2019-02-10T10:59:25.479Z,6.52
2019-02-10T11:00:25.492Z,6.56
2019-02-10T11:01:25.681Z,6.46
2019-02-10T11:02:25.446Z,6.51
2019-02-10T11:03:25.432Z,6.48
2019-02-10T11:04:25.421Z,6.48
2019-02-10T11:05:25.441Z,6.54
2019-02-10T11:06:25.409Z,6.49
2019-02-10T11:07:25.390Z,6.58
2019-02-10T11:08:25.378Z,6.67
2019-02-10T11:09:25.366Z,6.67
2019-02-10T11:10:25.381Z,6.59
2019-02-10T11:11:25.347Z,6.62
2019-02-10T11:12:25.335Z,6.70
2019-02-10T11:13:25.339Z,6.59
2019-02-10T11:14:25.322Z,6.61
2019-02-10T11:15:25.326Z,6.66
2019-02-10T11:16:25.292Z,6.66
2019-02-10T11:17:25.336Z,6.74
2019-02-10T11:18:25.268Z,6.81
2019-02-10T11:19:25.259Z,6.79
2019-02-10T11:20:25.272Z,6.79
2019-02-10T11:21:25.241Z,6.77
2019-02-10T11:22:25.224Z,6.74
2019-02-10T11:23:25.213Z,6.70
2019-02-10T11:24:28.735Z,6.73
2019-02-10T11:25:25.217Z,6.74
2019-02-10T11:26:25.200Z,6.80
2019-02-10T11:27:25.176Z,6.80
2019-02-10T11:28:25.173Z,6.74
2019-02-10T11:29:25.168Z,6.77
2019-02-10T11:30:25.169Z,6.81
2019-02-10T11:31:25.127Z,6.80
2019-02-10T11:32:25.126Z,6.89
2019-02-10T11:33:25.106Z,6.88
2019-02-10T11:34:25.094Z,6.88
2019-02-10T11:35:25.108Z,6.81
2019-02-10T11:36:25.072Z,6.88
2019-02-10T11:37:26.867Z,6.92
2019-02-10T11:38:25.051Z,6.95
2019-02-10T11:39:25.040Z,6.97
2019-02-10T11:40:25.053Z,6.92
2019-02-10T11:41:25.017Z,6.98
2019-02-10T11:42:25.008Z,6.91
2019-02-10T11:43:25.393Z,6.94
2019-02-10T11:44:24.987Z,6.88
2019-02-10T11:45:25.014Z,6.91
2019-02-10T11:46:24.991Z,7.02
2019-02-10T11:47:24.961Z,6.98
2019-02-10T11:48:24.941Z,7.09
2019-02-10T11:49:24.933Z,6.99
2019-02-10T11:50:24.923Z,7.05
2019-02-10T11:51:24.933Z,6.97
2019-02-10T11:52:24.913Z,7.05
2019-02-10T11:53:24.888Z,7.02
2019-02-10T11:54:24.882Z,7.06
2019-02-10T11:55:24.865Z,7.05
2019-02-10T11:56:24.898Z,7.09
2019-02-10T11:57:24.919Z,7.03
2019-02-10T11:58:24.837Z,7.07
2019-02-10T11:59:24.845Z,7.10
2019-02-10T12:00:24.818Z,7.12
2019-02-10T12:01:24.802Z,7.13
2019-02-10T12:02:24.828Z,7.16
2019-02-10T12:03:24.789Z,7.17
2019-02-10T12:04:24.769Z,7.21
2019-02-10T12:05:24.762Z,7.10
2019-02-10T12:06:24.750Z,7.25
2019-02-10T12:07:24.745Z,7.21
2019-02-10T12:08:24.752Z,7.27
2019-02-10T12:09:24.727Z,7.27
2019-02-10T12:10:24.706Z,7.21
2019-02-10T12:11:24.695Z,7.25
2019-02-10T12:12:24.691Z,7.24
2019-02-10T12:13:24.700Z,7.30
2019-02-10T12:14:24.689Z,7.27
2019-02-10T12:15:24.654Z,7.27
2019-02-10T12:16:24.643Z,7.28
2019-02-10T12:17:24.633Z,7.27
2019-02-10T12:18:24.671Z,7.25
2019-02-10T12:19:24.618Z,7.27
2019-02-10T12:20:24.603Z,7.31
2019-02-10T12:21:24.594Z,7.30
2019-02-10T12:22:24.584Z,7.35
2019-02-10T12:23:24.569Z,7.39
2019-02-10T12:24:24.598Z,7.32
2019-02-10T12:25:24.548Z,7.37
2019-02-10T12:26:24.544Z,7.40
2019-02-10T12:27:24.526Z,7.42
2019-02-10T12:28:24.518Z,7.43
2019-02-10T12:29:24.507Z,7.34
2019-02-10T12:30:24.519Z,7.42
2019-02-10T12:31:24.525Z,7.42
2019-02-10T12:32:24.491Z,7.39
2019-02-10T12:33:24.465Z,7.45
2019-02-10T12:34:24.452Z,7.39
2019-02-10T12:35:24.469Z,7.40
2019-02-10T12:36:24.432Z,7.40
2019-02-10T12:37:32.070Z,7.42
2019-02-10T12:38:25.410Z,7.46
2019-02-10T12:39:24.400Z,7.40
2019-02-10T12:40:24.418Z,7.45
2019-02-10T12:41:24.385Z,7.45
2019-02-10T12:42:24.368Z,7.43
2019-02-10T12:43:24.357Z,7.43
2019-02-10T12:44:24.346Z,7.39
2019-02-10T12:45:24.362Z,7.37
2019-02-10T12:46:24.329Z,7.39
2019-02-10T12:47:24.319Z,7.46
2019-02-10T12:48:24.306Z,7.48
2019-02-10T12:49:24.297Z,7.42
2019-02-10T12:50:24.322Z,7.42
2019-02-10T12:51:24.274Z,7.40
2019-02-10T12:52:24.275Z,7.39
2019-02-10T12:53:24.255Z,7.45
2019-02-10T12:54:24.243Z,7.42
2019-02-10T12:55:24.239Z,7.40
2019-02-10T12:56:24.260Z,7.40
2019-02-10T12:57:24.213Z,7.43
2019-02-10T12:58:24.199Z,7.43
2019-02-10T12:59:24.190Z,7.43
2019-02-10T13:00:24.179Z,7.40
2019-02-10T13:01:24.203Z,7.43
2019-02-10T13:02:24.195Z,7.45
2019-02-10T13:03:24.148Z,7.34
2019-02-10T13:04:24.137Z,7.48
2019-02-10T13:05:24.126Z,7.48
2019-02-10T13:06:24.115Z,7.46
2019-02-10T13:07:24.103Z,7.42
2019-02-10T13:08:24.125Z,7.42
2019-02-10T13:09:24.084Z,7.48
2019-02-10T13:10:24.073Z,7.40
2019-02-10T13:11:24.064Z,7.43
2019-02-10T13:12:24.056Z,7.49
2019-02-10T13:13:24.079Z,7.50
2019-02-10T13:14:24.044Z,7.43
2019-02-10T13:15:24.031Z,7.53
2019-02-10T13:16:24.055Z,7.49
2019-02-10T13:17:24.018Z,7.57
2019-02-10T13:18:23.992Z,7.53